createdAt,value
2018-04-10T00:00:42.089Z,21.52
2018-04-10T00:03:09.585Z,14.43
2018-04-10T00:05:37.064Z,25.08
2018-04-10T00:08:05.334Z,15.85
2018-04-10T00:10:33.581Z,15.05
2018-04-10T00:13:01.081Z,24.20
2018-04-10T00:15:29.326Z,15.00
2018-04-10T00:17:56.823Z,17.52
2018-04-10T00:20:25.069Z,12.73
2018-04-10T00:22:52.577Z,19.35
2018-04-10T00:25:20.057Z,22.42
2018-04-10T00:27:47.552Z,14.93
2018-04-10T00:30:15.025Z,14.32
2018-04-10T00:32:43.275Z,19.02
2018-04-10T00:35:10.772Z,14.35
2018-04-10T00:37:39.017Z,25.80
2018-04-10T00:40:06.513Z,18.02
2018-04-10T00:42:42.465Z,18.52
2018-04-10T00:45:10.729Z,16.00
2018-04-10T00:47:38.974Z,16.55
2018-04-10T00:50:06.468Z,20.10
2018-04-10T00:52:34.713Z,12.10
2018-04-10T00:55:02.208Z,14.30
2018-04-10T00:57:30.469Z,15.45
2018-04-10T00:59:59.485Z,21.83
2018-04-10T01:02:27.721Z,15.60
2018-04-10T01:04:55.208Z,15.50
2018-04-10T01:07:23.457Z,16.33
2018-04-10T01:09:50.961Z,15.02
2018-04-10T01:12:19.205Z,18.98
2018-04-10T01:14:46.698Z,20.42
2018-04-10T01:17:14.185Z,18.12
2018-04-10T01:19:41.696Z,15.32
2018-04-10T01:22:09.176Z,14.57
2018-04-10T01:24:37.440Z,16.58
2018-04-10T01:27:05.690Z,12.02
2018-04-10T01:29:33.180Z,21.87
2018-04-10T01:32:01.428Z,15.05
2018-04-10T01:34:28.921Z,15.88
2018-04-10T01:36:57.172Z,22.90
2018-04-10T01:39:24.649Z,22.60
2018-04-10T01:41:52.913Z,15.55
2018-04-10T01:44:20.390Z,15.85
2018-04-10T01:46:48.654Z,15.43
2018-04-10T01:49:16.136Z,15.77
2018-04-10T01:51:43.645Z,16.73
2018-04-10T01:54:11.129Z,16.25
2018-04-10T01:56:39.403Z,17.00
2018-04-10T01:59:06.876Z,13.10
2018-04-10T02:01:35.150Z,13.88
2018-04-10T02:04:03.406Z,16.23
2018-04-10T02:06:30.902Z,14.57
2018-04-10T02:08:59.152Z,15.80
2018-04-10T02:11:26.644Z,20.88
2018-04-10T02:13:54.120Z,18.70
2018-04-10T02:16:21.617Z,15.68
2018-04-10T02:18:49.093Z,18.98
2018-04-10T02:21:16.594Z,16.60
2018-04-10T02:23:44.085Z,18.48
2018-04-10T02:26:11.585Z,14.38
2018-04-10T02:28:39.829Z,13.85
2018-04-10T02:31:07.308Z,21.08
2018-04-10T02:33:35.577Z,16.15
2018-04-10T02:36:03.052Z,21.37
2018-04-10T02:38:31.322Z,18.65
2018-04-10T02:40:59.575Z,14.27
2018-04-10T02:43:27.065Z,18.80
2018-04-10T02:45:55.308Z,19.80
2018-04-10T02:48:22.821Z,14.20
2018-04-10T02:50:50.302Z,15.63
2018-04-10T02:53:18.657Z,19.73
2018-04-10T02:55:46.900Z,17.35
2018-04-10T02:58:14.404Z,21.80
2018-04-10T03:00:41.886Z,19.00
2018-04-10T03:03:09.387Z,14.15
2018-04-10T03:05:37.649Z,13.30
2018-04-10T03:08:05.144Z,19.52
2018-04-10T03:10:32.629Z,18.00
2018-04-10T03:13:00.129Z,18.60
2018-04-10T03:15:27.608Z,17.98
2018-04-10T03:17:55.872Z,19.37
2018-04-10T03:20:23.352Z,18.00
2018-04-10T03:22:51.617Z,19.27
2018-04-10T03:25:19.888Z,17.27
2018-04-10T03:27:47.395Z,19.30
2018-04-10T03:30:15.632Z,17.33
2018-04-10T03:32:43.901Z,15.60
2018-04-10T03:35:11.381Z,16.37
2018-04-10T03:37:39.644Z,17.77
2018-04-10T03:40:07.124Z,16.62
2018-04-10T03:42:35.393Z,21.58
2018-04-10T03:45:03.637Z,20.20
2018-04-10T03:47:31.112Z,13.00
2018-04-10T03:49:59.381Z,16.45
2018-04-10T03:52:26.856Z,17.65
2018-04-10T03:54:55.116Z,15.57
2018-04-10T03:57:22.608Z,15.85
2018-04-10T03:59:50.106Z,14.23
2018-04-10T04:02:17.594Z,14.43
2018-04-10T04:04:45.093Z,14.90
2018-04-10T04:07:12.565Z,8.68
2018-04-10T04:09:40.057Z,17.90
2018-04-10T04:12:07.529Z,9.40
2018-04-10T04:14:35.029Z,14.27
2018-04-10T04:17:14.272Z,15.20
2018-04-10T04:19:53.686Z,10.43
2018-04-10T04:22:33.784Z,14.23
2018-04-10T04:25:01.280Z,12.10
2018-04-10T04:27:28.756Z,12.02
2018-04-10T04:29:57.017Z,10.57
2018-04-10T04:32:24.497Z,11.73
2018-04-10T04:34:52.771Z,13.98
2018-04-10T04:37:21.009Z,10.43
2018-04-10T04:39:48.500Z,9.70
2018-04-10T04:42:16.744Z,9.32
2018-04-10T04:44:44.236Z,14.85
2018-04-10T04:47:12.484Z,10.57
2018-04-10T04:49:39.985Z,15.02
2018-04-10T04:52:07.471Z,14.93
2018-04-10T04:54:34.957Z,9.88
2018-04-10T04:57:02.457Z,9.75
2018-04-10T04:59:29.949Z,11.40
2018-04-10T05:01:57.448Z,11.05
2018-04-10T05:04:24.933Z,14.27
2018-04-10T05:06:53.202Z,15.45
2018-04-10T05:09:21.450Z,11.75
2018-04-10T05:11:48.941Z,21.95
2018-04-10T05:14:17.188Z,15.85
2018-04-10T05:16:44.685Z,16.02
2018-04-10T05:19:12.938Z,14.68
2018-04-10T05:21:40.432Z,12.02
2018-04-10T05:24:07.913Z,17.77
2018-04-10T05:26:35.409Z,20.65
2018-04-10T05:29:02.889Z,22.02
2018-04-10T05:31:31.162Z,20.20
2018-04-10T05:33:59.409Z,23.17
2018-04-10T05:36:26.908Z,21.87
2018-04-10T05:38:55.153Z,20.17
2018-04-10T05:41:22.648Z,13.35
2018-04-10T05:43:50.905Z,23.23
2018-04-10T05:46:18.404Z,20.62
2018-04-10T05:48:45.888Z,21.92
2018-04-10T05:51:13.387Z,19.75
2018-04-10T05:53:40.865Z,23.27
2018-04-10T05:56:09.125Z,24.33
2018-04-10T05:58:38.111Z,30.17
2018-04-10T06:01:06.389Z,22.00
2018-04-10T06:03:33.889Z,26.00
2018-04-10T06:06:01.379Z,26.27
2018-04-10T06:08:28.877Z,19.27
2018-04-10T06:10:57.121Z,18.73
2018-04-10T06:13:24.613Z,12.57
2018-04-10T06:15:53.226Z,16.58
2018-04-10T06:18:20.756Z,21.62
2018-04-10T06:20:49.006Z,14.65
2018-04-10T06:23:16.500Z,17.40
2018-04-10T06:25:44.753Z,15.35
2018-04-10T06:28:12.252Z,10.75
2018-04-10T06:30:39.724Z,13.35
2018-04-10T06:33:07.221Z,18.25
2018-04-10T06:35:34.704Z,15.77
2018-04-10T06:38:02.208Z,22.50
2018-04-10T06:40:29.694Z,12.23
2018-04-10T06:42:57.184Z,21.73
2018-04-10T06:45:25.438Z,14.45
2018-04-10T06:47:52.933Z,18.37
2018-04-10T06:50:21.177Z,22.13
2018-04-10T06:52:48.671Z,13.45
2018-04-10T06:55:17.361Z,15.88
2018-04-10T06:57:44.867Z,17.52
2018-04-10T07:00:12.345Z,16.15
2018-04-10T07:02:53.549Z,23.75
2018-04-10T07:05:21.793Z,13.20
2018-04-10T07:07:49.289Z,13.02
2018-04-10T07:10:17.541Z,12.82
2018-04-10T07:12:45.036Z,11.65
2018-04-10T07:15:13.296Z,15.45
2018-04-10T07:17:41.574Z,22.50
2018-04-10T07:20:09.828Z,16.50
2018-04-10T07:22:37.313Z,10.02
2018-04-10T07:25:05.585Z,8.35
2018-04-10T07:27:33.850Z,13.88
2018-04-10T07:30:01.341Z,11.90
2018-04-10T07:32:28.825Z,10.02
2018-04-10T07:34:56.320Z,12.18
2018-04-10T07:37:23.809Z,14.93
2018-04-10T07:39:52.086Z,13.25
2018-04-10T07:42:20.333Z,18.25
2018-04-10T07:44:47.828Z,17.50
2018-04-10T07:47:16.085Z,10.73
2018-04-10T07:49:44.349Z,10.60
2018-04-10T07:52:11.832Z,15.73
2018-04-10T07:54:40.097Z,13.60
2018-04-10T07:57:07.577Z,14.68
2018-04-10T07:59:35.850Z,12.25
2018-04-10T08:02:03.345Z,11.90
2018-04-10T08:04:30.840Z,16.98
2018-04-10T08:06:58.322Z,18.30
2018-04-10T08:09:26.589Z,15.40
2018-04-10T08:11:54.841Z,15.48
2018-04-10T08:14:22.338Z,10.18
2018-04-10T08:16:51.732Z,8.85
2018-04-10T08:19:19.221Z,10.82
2018-04-10T08:21:46.702Z,17.80
2018-04-10T08:24:14.201Z,18.98
2018-04-10T08:26:41.681Z,12.75
2018-04-10T08:29:09.945Z,14.93
2018-04-10T08:31:38.201Z,12.77
2018-04-10T08:34:05.685Z,14.38
2018-04-10T08:36:33.948Z,13.77
2018-04-10T08:39:01.435Z,13.95
2018-04-10T08:41:29.713Z,15.32
2018-04-10T08:43:57.296Z,14.52
2018-04-10T08:46:24.793Z,21.65
2018-04-10T08:48:52.282Z,13.82
2018-04-10T08:51:20.550Z,14.38
2018-04-10T08:53:48.037Z,17.83
2018-04-10T08:56:15.540Z,10.95
2018-04-10T08:58:43.021Z,20.55
2018-04-10T09:01:10.519Z,10.15
2018-04-10T09:03:38.002Z,12.93
2018-04-10T09:06:05.506Z,11.77
2018-04-10T09:08:33.761Z,6.78
2018-04-10T09:11:01.269Z,13.10
2018-04-10T09:13:28.748Z,9.48
2018-04-10T09:15:56.249Z,9.30
2018-04-10T09:18:23.733Z,6.53
2018-04-10T09:20:51.998Z,11.75
2018-04-10T09:23:20.250Z,12.07
2018-04-10T09:25:47.749Z,12.60
2018-04-10T09:28:16.007Z,9.85
2018-04-10T09:30:44.277Z,10.73
2018-04-10T09:33:11.757Z,16.62
2018-04-10T09:35:40.018Z,16.62
2018-04-10T09:38:07.498Z,8.30
2018-04-10T09:40:35.757Z,9.77
2018-04-10T09:43:04.004Z,7.22
2018-04-10T09:45:31.508Z,10.00
2018-04-10T09:47:59.744Z,6.32
2018-04-10T09:50:27.230Z,11.07
2018-04-10T09:52:54.734Z,7.90
2018-04-10T09:55:22.222Z,11.70
2018-04-10T09:57:49.717Z,7.20
2018-04-10T10:00:23.683Z,6.57
2018-04-10T10:02:51.193Z,10.77
2018-04-10T10:05:19.457Z,11.70
2018-04-10T10:07:47.720Z,18.35
2018-04-10T10:10:15.200Z,15.82
2018-04-10T10:12:43.490Z,9.70
2018-04-10T10:15:11.729Z,10.05
2018-04-10T10:17:39.227Z,8.93
2018-04-10T10:20:07.479Z,16.50
2018-04-10T10:22:34.974Z,9.43
2018-04-10T10:25:02.446Z,5.90
2018-04-10T10:27:29.942Z,8.93
2018-04-10T10:29:57.427Z,11.77
2018-04-10T10:43:57.136Z,19.90
2018-04-10T10:46:24.609Z,9.23
2018-04-10T10:48:55.197Z,15.32
2018-04-10T10:51:23.736Z,12.10
2018-04-10T10:53:51.325Z,11.52
2018-04-10T10:56:19.013Z,14.50
2018-04-10T10:58:47.281Z,12.13
2018-04-10T11:01:21.543Z,10.35
2018-04-10T11:03:50.001Z,15.27
2018-04-10T11:06:18.644Z,11.23
2018-04-10T11:08:47.435Z,17.55
2018-04-10T11:11:15.122Z,11.23
2018-04-10T11:13:43.785Z,16.08
2018-04-10T11:16:11.733Z,19.95
2018-04-10T11:18:46.269Z,17.37
2018-04-10T11:21:14.149Z,17.45
2018-04-10T11:23:41.693Z,29.90
2018-04-10T11:26:09.182Z,18.75
2018-04-10T11:28:37.846Z,16.15
2018-04-10T11:31:05.520Z,21.10
2018-04-10T11:33:33.957Z,16.83
2018-04-10T11:36:04.553Z,12.90
2018-04-10T11:38:32.264Z,19.80
2018-04-10T11:40:59.753Z,16.87
2018-04-10T11:43:27.466Z,19.00
2018-04-10T11:45:58.412Z,22.87
2018-04-10T11:48:26.720Z,14.23
2018-04-10T11:50:54.806Z,13.98
2018-04-10T11:53:22.314Z,14.77
2018-04-10T11:55:50.837Z,24.10
2018-04-10T11:58:19.288Z,24.27
2018-04-10T12:00:47.756Z,31.33
2018-04-10T12:03:16.925Z,16.95
2018-04-10T12:05:44.609Z,12.90
2018-04-10T12:08:12.305Z,19.73
2018-04-10T12:10:39.789Z,14.87
2018-04-10T12:13:14.096Z,25.45
2018-04-10T12:15:44.441Z,38.00
2018-04-10T12:18:11.949Z,24.83
2018-04-10T12:20:40.199Z,28.38
2018-04-10T12:23:11.681Z,24.08
2018-04-10T12:25:39.953Z,17.08
2018-04-10T12:28:08.228Z,22.62
2018-04-10T12:30:36.525Z,23.38
2018-04-10T12:33:04.773Z,19.25
2018-04-10T12:35:32.278Z,21.70
2018-04-10T12:38:00.813Z,33.95
2018-04-10T12:40:28.313Z,25.45
2018-04-10T12:42:55.879Z,19.98
2018-04-10T12:45:23.384Z,25.30
2018-04-10T12:47:50.941Z,27.35
2018-04-10T12:50:18.449Z,26.17
2018-04-10T12:52:46.061Z,24.98
2018-04-10T12:55:13.752Z,28.02
2018-04-10T12:57:43.012Z,31.60
2018-04-10T13:00:10.657Z,27.35
2018-04-10T13:02:38.144Z,28.23
2018-04-10T13:05:05.850Z,25.35
2018-04-10T13:07:33.592Z,26.75
2018-04-10T13:10:01.345Z,22.77
2018-04-10T13:12:28.824Z,29.67
2018-04-10T13:14:57.097Z,28.15
2018-04-10T13:17:25.494Z,24.02
2018-04-10T13:19:53.768Z,23.00
2018-04-10T13:22:22.309Z,26.60
2018-04-10T13:24:50.108Z,24.17
2018-04-10T13:27:19.261Z,28.10
2018-04-10T13:29:47.349Z,26.40
2018-04-10T13:32:14.836Z,24.80
2018-04-10T13:34:43.177Z,19.45
2018-04-10T13:37:11.866Z,25.98
2018-04-10T13:39:39.369Z,24.90
2018-04-10T13:42:07.638Z,23.83
2018-04-10T13:44:35.281Z,20.90
2018-04-10T13:47:03.820Z,20.30
2018-04-10T13:49:31.310Z,27.05
2018-04-10T13:51:58.811Z,17.92
2018-04-10T13:54:26.303Z,24.67
2018-04-10T13:56:53.961Z,24.85
2018-04-10T13:59:21.471Z,18.05
2018-04-10T14:01:49.685Z,20.60
2018-04-10T14:04:17.181Z,17.55
2018-04-10T14:06:44.813Z,19.83
2018-04-10T14:09:22.448Z,29.52
2018-04-10T14:11:49.956Z,24.23
2018-04-10T14:14:19.198Z,22.90
2018-04-10T14:16:47.661Z,24.83
2018-04-10T14:19:15.696Z,20.30
2018-04-10T14:21:43.972Z,19.37
2018-04-10T14:24:15.510Z,19.87
2018-04-10T14:26:43.993Z,26.70
2018-04-10T14:29:11.532Z,15.30
2018-04-10T14:31:39.034Z,20.92
2018-04-10T14:34:07.482Z,15.80
2018-04-10T14:36:35.189Z,21.25
2018-04-10T14:39:03.856Z,16.08
2018-04-10T14:41:31.398Z,21.37
2018-04-10T14:43:58.880Z,20.00
2018-04-10T14:46:27.351Z,14.15
2018-04-10T14:48:55.028Z,22.83
2018-04-10T14:51:23.693Z,16.90
2018-04-10T14:53:51.180Z,20.67
2018-04-10T14:56:19.592Z,27.65
2018-04-10T14:58:47.270Z,24.98
2018-04-10T15:01:14.865Z,15.68
2018-04-10T15:03:42.345Z,15.82
2018-04-10T15:06:10.613Z,16.35
2018-04-10T15:08:39.082Z,18.40
2018-04-10T15:11:06.771Z,13.85
2018-04-10T15:13:35.041Z,21.83
2018-04-10T15:16:04.602Z,21.85
2018-04-10T15:18:32.096Z,14.05
2018-04-10T15:21:00.677Z,16.95
2018-04-10T15:23:28.378Z,13.43
2018-04-10T15:25:59.494Z,11.68
2018-04-10T15:28:27.766Z,5.62
2018-04-10T15:30:56.249Z,4.62
2018-04-10T15:33:24.758Z,7.22
2018-04-10T15:35:53.273Z,5.37
2018-04-10T15:38:20.778Z,5.80
2018-04-10T15:40:49.869Z,5.22
2018-04-10T15:43:17.558Z,6.97
2018-04-10T15:45:45.069Z,6.95
2018-04-10T15:48:12.764Z,4.20
2018-04-10T15:50:41.025Z,5.68
2018-04-10T15:53:10.742Z,6.03
2018-04-10T15:55:38.325Z,10.07
2018-04-10T15:58:05.821Z,4.03
2018-04-10T16:00:33.457Z,6.78
2018-04-10T16:03:01.003Z,8.55
2018-04-10T16:05:29.258Z,3.75
2018-04-10T16:07:56.840Z,3.75
2018-04-10T16:10:25.121Z,4.18
2018-04-10T16:12:54.466Z,2.87
2018-04-10T16:15:22.037Z,7.40
2018-04-10T16:17:56.308Z,4.10
2018-04-10T16:20:23.797Z,10.60
2018-04-10T16:22:51.314Z,5.53
2018-04-10T16:25:19.585Z,10.93
2018-04-10T16:27:47.065Z,5.35
2018-04-10T16:30:15.858Z,4.50
2018-04-10T16:32:43.388Z,10.70
2018-04-10T16:35:10.919Z,8.00
2018-04-10T16:37:38.409Z,6.10
2018-04-10T16:40:05.905Z,7.32
2018-04-10T16:42:37.509Z,9.45
2018-04-10T16:45:05.004Z,9.23
2018-04-10T16:47:33.289Z,11.15
2018-04-10T16:50:00.789Z,13.85
2018-04-10T16:52:28.390Z,9.18
2018-04-10T16:54:56.689Z,6.75
2018-04-10T16:57:25.125Z,6.53
2018-04-10T16:59:53.110Z,5.93
2018-04-10T17:02:20.797Z,5.95
2018-04-10T17:04:49.062Z,9.65
2018-04-10T17:07:17.320Z,9.20
2018-04-10T17:09:44.825Z,9.52
2018-04-10T17:12:12.319Z,7.97
2018-04-10T17:14:39.965Z,9.55
2018-04-10T17:17:07.448Z,11.38
2018-04-10T17:19:35.040Z,12.60
2018-04-10T17:22:03.313Z,8.25
2018-04-10T17:24:30.866Z,7.80
2018-04-10T17:26:58.354Z,4.62
2018-04-10T17:29:26.616Z,9.48
2018-04-10T17:31:54.293Z,5.25
2018-04-10T17:34:23.033Z,8.00
2018-04-10T17:36:50.516Z,10.38
2018-04-10T17:39:18.189Z,7.18
2018-04-10T17:41:46.445Z,6.57
2018-04-10T17:44:13.930Z,27.65
2018-04-10T17:46:42.194Z,11.75
2018-04-10T17:49:09.725Z,5.85
2018-04-10T17:51:37.217Z,4.70
2018-04-10T17:54:05.458Z,7.72
2018-04-10T17:56:33.146Z,10.50
2018-04-10T17:59:08.401Z,10.57
2018-04-10T18:01:36.085Z,8.13
2018-04-10T18:04:03.561Z,5.25
2018-04-10T18:06:31.112Z,6.53
2018-04-10T18:08:58.590Z,8.35
2018-04-10T18:11:26.858Z,7.20
2018-04-10T18:13:54.388Z,6.93
2018-04-10T18:16:22.663Z,4.65
2018-04-10T18:18:50.938Z,5.93
2018-04-10T18:21:18.450Z,5.50
2018-04-10T18:23:45.964Z,21.95
2018-04-10T18:26:14.353Z,7.18
2018-04-10T18:28:41.838Z,5.53
2018-04-10T18:31:09.349Z,4.03
2018-04-10T18:33:36.833Z,4.32
2018-04-10T18:36:05.096Z,3.08
2018-04-10T18:38:33.361Z,7.03
2018-04-10T18:41:00.923Z,4.22
2018-04-10T18:43:29.182Z,3.22
2018-04-10T18:45:56.686Z,2.85
2018-04-10T18:48:24.166Z,3.70
2018-04-10T18:50:52.759Z,3.30
2018-04-10T18:53:20.241Z,4.47
2018-04-10T18:55:47.725Z,6.90
2018-04-10T18:58:15.265Z,5.07
2018-04-10T19:00:43.488Z,6.65
2018-04-10T19:03:11.173Z,3.45
2018-04-10T19:05:39.618Z,9.55
2018-04-10T19:08:07.933Z,4.50
2018-04-10T19:10:35.408Z,4.80
2018-04-10T19:13:03.259Z,10.65
2018-04-10T19:15:30.845Z,31.62
2018-04-10T19:17:58.635Z,7.07
2018-04-10T19:20:26.116Z,12.00
2018-04-10T19:22:53.658Z,7.05
2018-04-10T19:25:21.136Z,3.00
2018-04-10T19:27:49.410Z,4.32
2018-04-10T19:30:18.542Z,4.18
2018-04-10T19:32:46.286Z,2.47
2018-04-10T19:35:13.849Z,2.50
2018-04-10T19:37:41.452Z,6.32
2018-04-10T19:40:09.149Z,4.15
2018-04-10T19:42:37.416Z,2.42
2018-04-10T19:45:06.140Z,4.10
2018-04-10T19:47:34.561Z,4.00
2018-04-10T19:50:02.098Z,9.90
2018-04-10T19:52:35.394Z,7.87
2018-04-10T19:55:03.842Z,6.57
2018-04-10T19:57:32.105Z,5.43
2018-04-10T20:00:01.092Z,4.93
2018-04-10T20:02:28.641Z,2.70
2018-04-10T20:04:56.181Z,1.65
2018-04-10T20:07:23.722Z,2.58
2018-04-10T20:09:52.053Z,3.35
2018-04-10T20:12:19.535Z,3.33
2018-04-10T20:14:47.807Z,3.08
2018-04-10T20:17:16.052Z,6.15
2018-04-10T20:19:43.555Z,4.18
2018-04-10T20:22:11.249Z,3.42
2018-04-10T20:24:38.750Z,3.60
2018-04-10T20:27:07.933Z,2.53
2018-04-10T20:29:35.467Z,5.85
2018-04-10T20:32:03.914Z,7.05
2018-04-10T20:34:32.650Z,7.55
2018-04-10T20:37:00.513Z,13.65
2018-04-10T20:39:28.005Z,17.45
2018-04-10T20:41:56.189Z,23.52
2018-04-10T20:44:24.540Z,16.83
2018-04-10T20:46:52.017Z,13.13
2018-04-10T20:49:19.509Z,9.70
2018-04-10T20:51:47.211Z,12.35
2018-04-10T20:54:14.804Z,4.18
2018-04-10T20:56:42.473Z,3.83
2018-04-10T20:59:10.894Z,3.95
2018-04-10T21:01:38.373Z,6.12
2018-04-10T21:04:05.865Z,6.00
2018-04-10T21:06:34.066Z,2.95
2018-04-10T21:09:02.329Z,5.37
2018-04-10T21:11:30.285Z,6.00
2018-04-10T21:14:00.644Z,7.50
2018-04-10T21:16:29.133Z,9.57
2018-04-10T21:18:56.634Z,3.65
2018-04-10T21:21:24.240Z,7.43
2018-04-10T21:23:52.576Z,3.15
2018-04-10T21:26:20.270Z,3.72
2018-04-10T21:28:48.719Z,4.22
2018-04-10T21:31:16.225Z,4.18
2018-04-10T21:33:44.618Z,3.78
2018-04-10T21:36:12.312Z,1.95
2018-04-10T21:38:39.997Z,2.95
2018-04-10T21:41:07.493Z,2.75
2018-04-10T21:43:36.226Z,3.62
2018-04-10T21:46:04.816Z,6.12
2018-04-10T21:48:33.186Z,3.00
2018-04-10T21:51:00.689Z,3.00
2018-04-10T21:53:29.077Z,6.07
2018-04-10T21:55:57.342Z,7.70
2018-04-10T21:58:24.827Z,2.78
2018-04-10T22:00:53.194Z,3.35
2018-04-10T22:03:21.729Z,3.30
2018-04-10T22:05:49.817Z,2.67
2018-04-10T22:08:17.290Z,9.85
2018-04-10T22:10:44.806Z,4.90
2018-04-10T22:13:12.429Z,4.32
2018-04-10T22:15:40.684Z,3.30
2018-04-10T22:18:09.029Z,7.37
2018-04-10T22:20:36.521Z,3.37
2018-04-10T22:23:04.018Z,3.17
2018-04-10T22:25:35.393Z,4.57
2018-04-10T22:28:03.069Z,3.65
2018-04-10T22:30:30.799Z,2.40
2018-04-10T22:32:59.434Z,3.70
2018-04-10T22:35:28.042Z,3.22
2018-04-10T22:37:57.461Z,2.25
2018-04-10T22:40:25.097Z,2.90
2018-04-10T22:42:53.370Z,1.60
2018-04-10T22:45:21.618Z,3.17
2018-04-10T22:47:49.109Z,2.90
2018-04-10T22:50:16.586Z,1.73
2018-04-10T22:52:44.293Z,2.15
2018-04-10T22:55:11.803Z,2.65
2018-04-10T22:57:39.307Z,3.28
2018-04-10T23:00:06.823Z,3.53
2018-04-10T23:02:35.081Z,2.00
2018-04-10T23:05:03.496Z,1.52
2018-04-10T23:07:31.000Z,3.85
2018-04-10T23:09:58.477Z,11.02
2018-04-10T23:12:26.190Z,2.95
2018-04-10T23:14:54.762Z,3.53
2018-04-10T23:17:23.106Z,3.78
2018-04-10T23:19:51.277Z,3.72
2018-04-10T23:22:19.506Z,2.53
2018-04-10T23:24:48.767Z,4.03
2018-04-10T23:27:16.458Z,2.92
2018-04-10T23:29:43.948Z,3.47
2018-04-10T23:32:12.087Z,2.92
2018-04-10T23:34:39.760Z,3.78
2018-04-10T23:37:08.226Z,1.35
2018-04-10T23:39:35.903Z,5.95
2018-04-10T23:42:04.166Z,3.75
2018-04-10T23:44:32.042Z,6.95
2018-04-10T23:46:59.585Z,2.72
2018-04-10T23:49:27.252Z,4.35
2018-04-10T23:51:54.745Z,1.58
2018-04-10T23:54:23.693Z,3.05
2018-04-10T23:56:51.401Z,2.53
2018-04-10T23:59:19.642Z,4.43
